• Join FlightAware (Why Join?)
  • Login
  • US Flag 
10:42PM EDT


 

Airport Tracker/Info


-or-


 

Live Flight TrackerFlight Track Log ✈ N109LU ✈ 15-Jul-2014 ✈ KSUA - KBCT

Flight Track Log - Related Links

Times and Time Zones

All times are in EDT time to prevent confusion due to time zone crossing. See the N109LU flight status page for this flight to view local times or setup timezone preferences in your user account.

Time Position Orientation Groundspeed Altitude Reporting Facility
EDT Latitude Longitude Course Direction KTS MPH feet Rate Location/Type
10:30AM 27.2114 -80.2964 299° West 84 97 2,200  Level Miami Center
10:31AM 27.2003 -80.3194 242° Southwest 89 102 2,800 360 Climbing Miami Center
10:32AM 27.1725 -80.3311 200° South 98 113 3,000 60 Climbing Miami Center
10:33AM 27.1453 -80.3450 204° Southwest 109 125 3,000 -60 Level Miami Center
10:34AM 26.9699 -80.1912 173° South  Level Estimated
10:34AM 27.1142 -80.3539 194° South 109 125 2,900  Level Miami Center
10:35AM 27.0842 -80.3653 199° South 110 127 3,000  Climbing Miami Center
10:36AM 27.0539 -80.3789 202° Southwest 110 127 2,900 -60 Descending Miami Center
10:37AM 27.0258 -80.3914 202° Southwest 110 127 2,900  Level Miami Center
10:38AM 26.9958 -80.4022 198° South 110 127 2,900  Level Miami Center
10:39AM 26.9661 -80.4172 204° Southwest 111 128 3,000  Climbing Miami Center
10:40AM 26.9367 -80.4311 203° Southwest 111 128 2,900 -60 Descending Miami Center
10:41AM 26.9072 -80.4439 201° Southwest 110 127 2,900  Level Miami Center
10:42AM 26.8797 -80.4547 199° South 110 127 3,000  Climbing Miami Center
10:43AM 26.8489 -80.4683 201° Southwest 110 127 3,000 -60 Level Miami Center
10:44AM 26.8186 -80.4803 199° South 111 128 2,900  Descending Miami Center
10:45AM 26.7869 -80.4833 185° South 112 129 3,000  Climbing Miami Center
10:46AM 26.7547 -80.4764 169° South 115 132 2,900 -60 Descending Miami Center
10:47AM 26.7214 -80.4703 171° South 113 130 2,900  Level Miami Center
10:48AM 26.6900 -80.4667 174° South 116 133 2,900  Level Miami Center
10:49AM 26.6569 -80.4639 176° South 116 133 2,900  Level Miami Center
10:50AM 26.6222 -80.4564 169° South 114 131 2,900  Level Miami Center
10:51AM 26.5928 -80.4489 167° South 112 129 3,000  Climbing Miami Center
10:52AM 26.5753 -80.4128 118° Southeast 117 135 3,000 -60 Level Miami Center
10:53AM 26.5578 -80.3814 122° Southeast 118 136 2,900  Descending Miami Center
10:54AM 26.5433 -80.3511 118° Southeast 111 128 3,000  Climbing Miami Center
10:55AM 26.5411 -80.3122 94° East 120 138 3,000 -60 Level Miami Center
10:57AM 26.5467 -80.2742 81° East 121 139 2,900  Descending Miami Center
10:58AM 26.5506 -80.2344 84° East 122 140 3,000  Climbing Miami Center
10:59AM 26.5539 -80.1978 84° East 122 140 2,900  Descending Miami Center
11:00AM 26.5331 -80.1686 129° Southeast 119 137 3,000  Climbing Miami Center
11:01AM 26.5131 -80.1433 131° Southeast 115 132 3,000 -300 Level Miami Center
11:02AM 26.5144 -80.1061 88° East 123 142 2,500 -540 Descending Miami Center
11:03AM 26.4778 -80.1014 173° South 111 128 1,900 -420 Descending Miami Center
11:04AM 26.4564 -80.1022 182° South 104 120 1,700 -240 Descending Miami Center
11:04AM 26.4506 -80.1039 194° South 101 116 1,700 -600 Level Miami Center
11:05AM 26.4286 -80.1039 180° South 94 108 1,100 -540 Descending Miami Center
11:06AM 26.4025 -80.1081 188° South 91 105 700 -240 Descending Miami Center
11:07AM 26.3828 -80.1231 214° Southwest 88 101 700  Level Miami Center
11:07AM 26.3800 -80.1264 227° Southwest 88 101 700 -240 Level Miami Center
11:08AM 26.3636 -80.1350 205° Southwest 90 104 500 -360 Descending Miami Center
11:09AM 26.3700 -80.1167 69° East 80 92 100 -420 Descending Miami Center
11:11AM 26.3667 -80.1000 61° Northeast  Level FlightAware Approximate